createdAt,value
2023-02-04T00:00:20.258Z,101410.59
2023-02-04T00:02:47.445Z,101400.97
2023-02-04T00:05:16.862Z,101414.22
2023-02-04T00:07:44.048Z,101412.69
2023-02-04T00:10:11.316Z,101407.19
2023-02-04T00:12:38.341Z,101414.69
2023-02-04T00:15:06.309Z,101415.25
2023-02-04T00:17:33.436Z,101421.31
2023-02-04T00:20:00.446Z,101421.03
2023-02-04T00:22:29.141Z,101427.25
2023-02-04T00:24:56.554Z,101430.50
2023-02-04T00:27:23.632Z,101451.69
2023-02-04T00:29:50.833Z,101462.25
2023-02-04T00:32:17.945Z,101461.88
2023-02-04T00:34:45.034Z,101465.47
2023-02-04T00:37:11.984Z,101477.66
2023-02-04T00:39:38.952Z,101479.31
2023-02-04T00:42:06.339Z,101480.00
2023-02-04T00:44:33.405Z,101488.69
2023-02-04T00:47:00.382Z,101485.00
2023-02-04T00:49:27.395Z,101499.81
2023-02-04T00:51:54.406Z,101496.22
2023-02-04T00:54:21.401Z,101500.50
2023-02-04T00:56:48.373Z,101510.94
2023-02-04T00:59:15.458Z,101519.66
2023-02-04T01:01:42.661Z,101522.13
2023-02-04T01:04:09.625Z,101520.06
2023-02-04T01:06:36.871Z,101534.97
2023-02-04T01:09:04.905Z,101522.91
2023-02-04T01:11:32.509Z,101520.97
2023-02-04T01:13:59.649Z,101524.38
2023-02-04T01:16:27.258Z,101519.94
2023-02-04T01:18:55.999Z,101518.78
2023-02-04T01:21:24.562Z,101524.09
2023-02-04T01:23:51.977Z,101523.19
2023-02-04T01:26:19.674Z,101524.94
2023-02-04T01:28:46.945Z,101539.00
2023-02-04T01:31:15.046Z,101541.81
2023-02-04T01:33:42.313Z,101527.84
2023-02-04T01:36:10.020Z,101535.75
2023-02-04T01:38:37.085Z,101524.22
2023-02-04T01:41:05.446Z,101522.31
2023-02-04T01:43:33.296Z,101521.84
2023-02-04T01:46:02.588Z,101525.16
2023-02-04T01:48:30.626Z,101512.66
2023-02-04T01:51:09.471Z,101501.06
2023-02-04T01:53:37.457Z,101506.91
2023-02-04T01:56:17.936Z,101504.03
2023-02-04T01:58:45.476Z,101516.19
2023-02-04T02:01:17.222Z,101517.75
2023-02-04T02:03:44.324Z,101530.75
2023-02-04T02:06:11.346Z,101531.34
2023-02-04T02:08:45.863Z,101534.81
2023-02-04T02:11:12.964Z,101542.34
2023-02-04T02:13:39.955Z,101543.91
2023-02-04T02:16:07.205Z,101555.06
2023-02-04T02:18:34.264Z,101558.28
2023-02-04T02:21:06.970Z,101560.81
2023-02-04T02:23:54.209Z,101568.38
2023-02-04T02:26:22.532Z,101571.97
2023-02-04T02:28:50.303Z,101593.78
2023-02-04T02:31:21.072Z,101599.75
2023-02-04T02:33:48.669Z,101604.81
2023-02-04T02:36:15.752Z,101605.53
2023-02-04T02:38:42.837Z,101620.22
2023-02-04T02:41:10.489Z,101633.22
2023-02-04T02:43:38.804Z,101629.50
2023-02-04T02:46:06.583Z,101641.63
2023-02-04T02:48:33.836Z,101641.50
2023-02-04T02:51:01.007Z,101642.13
2023-02-04T02:53:28.188Z,101635.06
2023-02-04T02:55:55.167Z,101636.72
2023-02-04T02:58:28.952Z,101640.19
2023-02-04T03:00:57.323Z,101641.66
2023-02-04T03:03:50.472Z,101632.88
2023-02-04T03:06:23.091Z,101622.28
2023-02-04T03:08:55.349Z,101630.22
2023-02-04T03:11:23.536Z,101617.84
2023-02-04T03:13:51.763Z,101619.78
2023-02-04T03:16:19.424Z,101623.38
2023-02-04T03:18:46.396Z,101624.16
2023-02-04T03:21:13.551Z,101625.94
2023-02-04T03:23:40.802Z,101631.34
2023-02-04T03:26:07.846Z,101637.50
2023-02-04T03:28:39.795Z,101644.53
2023-02-04T03:31:06.849Z,101650.69
2023-02-04T03:33:35.881Z,101658.66
2023-02-04T03:36:03.081Z,101671.81
2023-02-04T03:38:30.316Z,101677.13
2023-02-04T03:40:57.297Z,101678.84
2023-02-04T03:43:24.267Z,101673.53
2023-02-04T03:45:51.260Z,101679.63
2023-02-04T03:48:18.396Z,101689.22
2023-02-04T03:50:45.374Z,101695.38
2023-02-04T03:53:12.623Z,101707.63
2023-02-04T03:55:39.614Z,101707.72
2023-02-04T03:58:06.766Z,101715.53
2023-02-04T04:00:34.003Z,101711.16
2023-02-04T04:03:01.093Z,101711.22
2023-02-04T04:05:28.802Z,101718.28
2023-02-04T04:07:56.198Z,101711.31
2023-02-04T04:10:23.539Z,101709.56
2023-02-04T04:12:50.542Z,101714.84
2023-02-04T04:15:17.765Z,101720.91
2023-02-04T04:17:44.860Z,101719.13
2023-02-04T04:20:12.334Z,101721.63
2023-02-04T04:22:39.675Z,101724.09
2023-02-04T04:25:07.736Z,101729.28
2023-02-04T04:27:34.814Z,101737.16
2023-02-04T04:30:02.067Z,101743.25
2023-02-04T04:32:29.120Z,101749.50
2023-02-04T04:34:56.200Z,101741.75
2023-02-04T04:37:23.215Z,101754.06
2023-02-04T04:39:50.182Z,101750.59
2023-02-04T04:42:17.155Z,101747.81
2023-02-04T04:44:44.251Z,101757.44
2023-02-04T04:47:11.261Z,101766.00
2023-02-04T04:49:38.285Z,101766.97
2023-02-04T04:52:05.584Z,101769.47
2023-02-04T04:54:32.607Z,101777.44
2023-02-04T04:56:59.606Z,101783.59
2023-02-04T04:59:26.620Z,101782.53
2023-02-04T05:01:53.744Z,101776.31
2023-02-04T05:04:20.818Z,101771.19
2023-02-04T05:06:48.022Z,101769.34
2023-02-04T05:09:16.741Z,101776.25
2023-02-04T05:11:43.784Z,101768.28
2023-02-04T05:14:10.724Z,101763.03
2023-02-04T05:16:37.953Z,101758.69
2023-02-04T05:19:05.070Z,101756.13
2023-02-04T05:21:32.064Z,101758.75
2023-02-04T05:23:59.198Z,101766.47
2023-02-04T05:26:30.595Z,101763.69
2023-02-04T05:29:00.586Z,101763.63
2023-02-04T05:31:28.129Z,101774.94
2023-02-04T05:33:55.380Z,101781.66
2023-02-04T05:36:22.486Z,101782.47
2023-02-04T05:38:49.544Z,101787.81
2023-02-04T05:41:16.559Z,101791.34
2023-02-04T05:43:43.599Z,101792.22
2023-02-04T05:46:10.740Z,101792.16
2023-02-04T05:48:37.884Z,101794.72
2023-02-04T05:51:05.077Z,101795.53
2023-02-04T05:53:32.265Z,101806.88
2023-02-04T05:55:59.290Z,101816.41
2023-02-04T05:58:33.251Z,101820.00
2023-02-04T06:01:01.780Z,101818.13
2023-02-04T06:03:29.829Z,101821.53
2023-02-04T06:05:57.384Z,101826.78
2023-02-04T06:08:24.434Z,101841.72
2023-02-04T06:10:51.403Z,101847.78
2023-02-04T06:13:18.655Z,101850.28
2023-02-04T06:15:45.745Z,101858.97
2023-02-04T06:18:12.729Z,101867.75
2023-02-04T06:20:40.052Z,101865.06
2023-02-04T06:23:07.102Z,101858.81
2023-02-04T06:25:34.112Z,101869.34
2023-02-04T06:28:01.800Z,101862.34
2023-02-04T06:30:28.924Z,101879.91
2023-02-04T06:32:55.888Z,101874.50
2023-02-04T06:35:22.981Z,101882.31
2023-02-04T06:37:50.021Z,101885.91
2023-02-04T06:40:17.375Z,101885.09
2023-02-04T06:42:44.435Z,101884.19
2023-02-04T06:45:11.423Z,101879.84
2023-02-04T06:47:38.455Z,101881.56
2023-02-04T06:50:05.760Z,101884.94
2023-02-04T06:52:32.733Z,101882.41
2023-02-04T06:54:59.680Z,101884.19
2023-02-04T06:57:26.753Z,101884.03
2023-02-04T06:59:53.750Z,101887.56
2023-02-04T07:02:20.795Z,101895.44
2023-02-04T07:04:49.343Z,101898.75
2023-02-04T07:07:16.484Z,101897.94
2023-02-04T07:09:43.517Z,101902.28
2023-02-04T07:12:10.549Z,101895.44
2023-02-04T07:14:37.568Z,101905.13
2023-02-04T07:17:04.640Z,101906.78
2023-02-04T07:19:31.702Z,101912.78
2023-02-04T07:21:58.728Z,101925.09
2023-02-04T07:24:25.910Z,101940.69
2023-02-04T07:26:52.984Z,101938.06
2023-02-04T07:29:25.253Z,101935.53
2023-02-04T07:31:53.498Z,101944.31
2023-02-04T07:34:21.342Z,101939.06
2023-02-04T07:36:48.619Z,101948.00
2023-02-04T07:39:16.268Z,101961.19
2023-02-04T07:41:43.335Z,101963.00
2023-02-04T07:44:10.421Z,101974.56
2023-02-04T07:46:38.358Z,101982.53
2023-02-04T07:49:05.460Z,101987.78
2023-02-04T07:51:32.557Z,101998.28
2023-02-04T07:53:59.647Z,102002.81
2023-02-04T07:56:26.798Z,102004.69
2023-02-04T07:58:53.794Z,102005.66
2023-02-04T08:01:20.803Z,102006.72
2023-02-04T08:03:47.893Z,102015.50
2023-02-04T08:06:14.932Z,102018.38
2023-02-04T08:08:41.996Z,102017.53
2023-02-04T08:13:36.985Z,102023.03
2023-02-04T08:16:04.140Z,102019.66
2023-02-04T08:18:31.512Z,102028.63
2023-02-04T08:20:59.469Z,102042.00
2023-02-04T08:23:26.375Z,102038.50
2023-02-04T08:25:53.459Z,102036.00
2023-02-04T08:28:20.443Z,102040.53
2023-02-04T08:30:47.659Z,102040.75
2023-02-04T08:33:14.677Z,102050.53
2023-02-04T08:35:41.637Z,102047.06
2023-02-04T08:38:08.668Z,102050.59
2023-02-04T08:40:35.748Z,102040.22
2023-02-04T08:43:02.785Z,102030.69
2023-02-04T08:45:30.198Z,102042.28
2023-02-04T08:47:57.425Z,102042.19
2023-02-04T08:50:24.446Z,102049.34
2023-02-04T08:52:51.472Z,102047.69
2023-02-04T08:55:18.473Z,102045.13
2023-02-04T08:57:45.451Z,102050.53
2023-02-04T09:00:13.525Z,102049.94
2023-02-04T09:02:40.473Z,102051.00
2023-02-04T09:05:07.974Z,102046.72
2023-02-04T09:07:34.923Z,102053.16
2023-02-04T09:10:02.016Z,102044.53
2023-02-04T09:12:34.591Z,102047.22
2023-02-04T09:15:01.593Z,102052.94
2023-02-04T09:17:28.572Z,102054.00
2023-02-04T09:19:55.492Z,102049.56
2023-02-04T09:22:22.458Z,102058.50
2023-02-04T09:24:49.410Z,102072.25
2023-02-04T09:27:16.360Z,102069.75
2023-02-04T09:29:43.383Z,102073.50
2023-02-04T09:32:10.305Z,102066.59
2023-02-04T09:34:37.948Z,102057.09
2023-02-04T09:37:05.111Z,102059.34
2023-02-04T09:39:32.162Z,102051.44
2023-02-04T09:41:59.630Z,102047.97
2023-02-04T09:44:28.978Z,102054.56
2023-02-04T09:47:01.261Z,102048.88
2023-02-04T09:49:28.893Z,102056.22
2023-02-04T09:51:56.759Z,102051.91
2023-02-04T09:54:24.592Z,102063.22
2023-02-04T09:56:53.046Z,102050.75
2023-02-04T09:59:22.883Z,102013.78
2023-02-04T10:02:00.998Z,102003.56
2023-02-04T10:04:28.795Z,102007.66
2023-02-04T10:07:00.486Z,101996.16
2023-02-04T10:09:27.527Z,101968.56
2023-02-04T10:11:54.540Z,101977.81
2023-02-04T10:14:25.262Z,101974.56
2023-02-04T10:17:00.541Z,101991.44
2023-02-04T10:19:30.308Z,102019.22
2023-02-04T10:21:57.761Z,102007.91
2023-02-04T10:24:26.915Z,101978.72
2023-02-04T10:26:54.788Z,101926.75
2023-02-04T10:29:27.152Z,101939.84
2023-02-04T10:31:54.167Z,101944.22
2023-02-04T10:34:39.912Z,101962.16
2023-02-04T10:37:22.619Z,101951.69
2023-02-04T10:39:49.934Z,101942.03
2023-02-04T10:42:26.302Z,101922.84
2023-02-04T10:44:53.860Z,101944.56
2023-02-04T10:47:29.001Z,101892.75
2023-02-04T10:50:18.135Z,101892.16
2023-02-04T10:52:51.452Z,101835.69
2023-02-04T10:55:22.430Z,101840.13
2023-02-04T10:57:52.548Z,101891.16
2023-02-04T11:00:25.629Z,101852.22
2023-02-04T11:03:09.949Z,101779.41
2023-02-04T11:05:37.298Z,101824.47
2023-02-04T11:08:27.028Z,101801.09
2023-02-04T11:11:05.552Z,101763.81
2023-02-04T11:13:44.148Z,101782.75
2023-02-04T11:16:28.887Z,101762.09
2023-02-04T11:19:02.869Z,101757.09
2023-02-04T11:21:50.072Z,101759.72
2023-02-04T11:24:16.951Z,101722.63
2023-02-04T11:26:51.287Z,101800.34
2023-02-04T11:29:42.900Z,101754.66
2023-02-04T11:32:35.608Z,101710.47
2023-02-04T11:35:11.633Z,101767.22
2023-02-04T11:37:43.406Z,101791.91
2023-02-04T11:40:32.744Z,101710.69
2023-02-04T11:43:08.625Z,101690.44
2023-02-04T11:45:38.022Z,101728.16
2023-02-04T11:48:19.375Z,101661.50
2023-02-04T11:51:12.321Z,101608.16
2023-02-04T11:53:39.355Z,101581.81
2023-02-04T11:56:06.476Z,101605.72
2023-02-04T11:58:33.845Z,101581.34
2023-02-04T12:01:00.843Z,101571.13
2023-02-04T12:03:36.551Z,101504.31
2023-02-04T12:06:04.171Z,101497.44
2023-02-04T12:08:35.071Z,101513.50
2023-02-04T12:11:11.327Z,101550.00
2023-02-04T12:13:54.780Z,101587.56
2023-02-04T12:16:22.431Z,101559.53
2023-02-04T12:19:16.523Z,101565.09
2023-02-04T12:21:43.958Z,101617.81
2023-02-04T12:24:10.979Z,101625.44
2023-02-04T12:26:37.949Z,101612.81
2023-02-04T12:29:05.728Z,101506.63
2023-02-04T12:31:33.773Z,101549.00
2023-02-04T12:34:01.092Z,101386.59
2023-02-04T12:36:29.872Z,101427.56
2023-02-04T12:39:00.399Z,101430.00
2023-02-04T12:41:28.526Z,101431.81
2023-02-04T12:43:55.810Z,101415.28
2023-02-04T12:46:23.481Z,101190.16
2023-02-04T12:48:50.799Z,101358.44
2023-02-04T12:51:17.917Z,101423.22
2023-02-04T12:53:44.880Z,101464.84
2023-02-04T12:56:11.884Z,101365.41
2023-02-04T12:58:39.129Z,101337.81
2023-02-04T13:01:06.681Z,101358.81
2023-02-04T13:03:33.984Z,101410.72
2023-02-04T13:06:01.105Z,101184.09
2023-02-04T13:08:28.350Z,101140.38
2023-02-04T13:10:55.578Z,101116.16
2023-02-04T13:15:57.021Z,101185.72
2023-02-04T13:18:24.216Z,101156.88
2023-02-04T13:20:51.179Z,101171.88
2023-02-04T13:23:18.491Z,101183.13
2023-02-04T13:25:45.673Z,101184.03
2023-02-04T13:28:12.685Z,101183.44
2023-02-04T13:30:39.741Z,101149.66
2023-02-04T13:33:06.804Z,101180.66
2023-02-04T13:35:33.973Z,101161.06
2023-02-04T13:38:01.184Z,101177.81
2023-02-04T13:40:28.172Z,101209.47
2023-02-04T13:42:55.123Z,101346.94
2023-02-04T13:45:22.216Z,101269.81
2023-02-04T13:47:49.351Z,101225.91
2023-02-04T13:50:19.436Z,101236.31
2023-02-04T13:52:46.419Z,101295.75
2023-02-04T13:55:13.344Z,101138.59
2023-02-04T13:57:40.249Z,101152.16
2023-02-04T14:00:08.753Z,101174.53
2023-02-04T14:02:35.788Z,101104.44
2023-02-04T14:05:02.772Z,101136.03
2023-02-04T14:07:30.595Z,101241.94
2023-02-04T14:09:57.732Z,101139.50
2023-02-04T14:12:24.735Z,101179.91
2023-02-04T14:14:51.676Z,101196.03
2023-02-04T14:17:18.651Z,101209.66
2023-02-04T14:19:45.561Z,101183.81
2023-02-04T14:22:13.309Z,100941.84
2023-02-04T14:24:42.676Z,100995.63
2023-02-04T14:27:11.010Z,101060.88
2023-02-04T14:29:37.993Z,101020.00
2023-02-04T14:32:05.328Z,101016.94
2023-02-04T14:34:32.339Z,100972.53
2023-02-04T14:36:59.487Z,101033.59
2023-02-04T14:39:26.528Z,101116.78
2023-02-04T14:41:53.516Z,101025.28
2023-02-04T14:44:21.061Z,101016.13
2023-02-04T14:46:49.109Z,100998.28
2023-02-04T14:49:19.109Z,101036.88
2023-02-04T14:51:46.072Z,101095.16
2023-02-04T14:54:13.682Z,101069.84
2023-02-04T14:56:40.675Z,101191.69
2023-02-04T14:59:07.652Z,101130.91
2023-02-04T15:01:34.636Z,101018.03
2023-02-04T15:04:01.743Z,101070.50
2023-02-04T15:06:28.667Z,101125.66
2023-02-04T15:08:57.213Z,101046.13
2023-02-04T15:11:24.133Z,101032.63
2023-02-04T15:13:51.064Z,100984.63
2023-02-04T15:16:21.027Z,100874.66
2023-02-04T15:18:48.265Z,100992.41
2023-02-04T15:21:15.266Z,101060.13
2023-02-04T15:23:44.190Z,101032.19
2023-02-04T15:26:11.292Z,101030.44
2023-02-04T15:28:38.220Z,100942.00
2023-02-04T15:31:05.913Z,100925.25
2023-02-04T15:33:33.016Z,100942.31
2023-02-04T15:36:00.066Z,100955.41
2023-02-04T15:38:27.027Z,101063.06
2023-02-04T15:40:54.014Z,101007.03
2023-02-04T15:43:20.920Z,100997.47
2023-02-04T15:45:47.932Z,100964.72
2023-02-04T15:48:16.654Z,100900.34
2023-02-04T15:50:44.020Z,100933.53
2023-02-04T15:53:11.394Z,100952.28
2023-02-04T15:55:38.360Z,100999.44
2023-02-04T15:58:05.246Z,100949.53
2023-02-04T16:00:32.459Z,100952.16
2023-02-04T16:02:59.876Z,100948.72
2023-02-04T16:05:27.023Z,101009.44
2023-02-04T16:07:54.253Z,100966.78
2023-02-04T16:10:21.285Z,100984.31
2023-02-04T16:12:48.480Z,100997.41
2023-02-04T16:15:15.731Z,100973.28
2023-02-04T16:17:42.814Z,100985.41
2023-02-04T16:20:10.813Z,101060.31
2023-02-04T16:22:38.163Z,101030.88
2023-02-04T16:25:06.796Z,101075.19
2023-02-04T16:27:34.104Z,101119.47
2023-02-04T16:30:02.018Z,101154.69
2023-02-04T16:32:29.410Z,101186.91
2023-02-04T16:34:56.858Z,101243.47
2023-02-04T16:37:23.861Z,101221.41
2023-02-04T16:39:52.121Z,101204.03
2023-02-04T16:42:19.621Z,101231.81
2023-02-04T16:44:46.599Z,101248.66
2023-02-04T16:47:13.631Z,101247.16
2023-02-04T16:49:40.625Z,101269.88
2023-02-04T16:52:08.072Z,101308.47
2023-02-04T16:54:35.403Z,101299.81
2023-02-04T16:57:03.920Z,101329.41
2023-02-04T16:59:33.507Z,101349.69
2023-02-04T17:02:01.063Z,101360.81
2023-02-04T17:04:28.927Z,101376.00
2023-02-04T17:06:57.244Z,101341.25
2023-02-04T17:09:24.412Z,101365.50
2023-02-04T17:11:52.189Z,101393.81
2023-02-04T17:14:19.896Z,101414.38
2023-02-04T17:16:48.276Z,101412.91
2023-02-04T17:19:21.336Z,101439.75
2023-02-04T17:21:49.013Z,101433.22
2023-02-04T17:24:16.149Z,101443.84
2023-02-04T17:26:43.792Z,101458.41
2023-02-04T17:29:21.882Z,101468.66
2023-02-04T17:31:49.260Z,101486.50
2023-02-04T17:34:16.221Z,101495.22
2023-02-04T17:36:43.226Z,101511.50
2023-02-04T17:39:10.357Z,101529.66
2023-02-04T17:41:37.395Z,101540.00
2023-02-04T17:44:04.720Z,101528.09
2023-02-04T17:46:31.857Z,101535.22
2023-02-04T17:48:59.048Z,101543.97
2023-02-04T17:51:26.157Z,101549.06
2023-02-04T17:53:53.150Z,101561.13
2023-02-04T17:56:21.480Z,101559.66
2023-02-04T17:58:49.547Z,101579.56
2023-02-04T18:01:19.063Z,101608.28
2023-02-04T18:03:46.584Z,101615.56
2023-02-04T18:06:27.342Z,101622.03
2023-02-04T18:09:02.083Z,101622.47
2023-02-04T18:11:36.409Z,101641.97
2023-02-04T18:14:21.289Z,101650.50
2023-02-04T18:16:48.354Z,101658.00
2023-02-04T18:19:37.063Z,101656.47
2023-02-04T18:22:15.748Z,101657.53
2023-02-04T18:24:46.153Z,101671.13
2023-02-04T18:27:24.951Z,101669.66
2023-02-04T18:29:55.578Z,101674.22
2023-02-04T18:32:28.772Z,101663.34
2023-02-04T18:34:59.206Z,101682.09
2023-02-04T18:37:36.414Z,101679.22
2023-02-04T18:40:09.972Z,101698.38
2023-02-04T18:42:43.725Z,101710.66
2023-02-04T18:45:30.239Z,101723.09
2023-02-04T18:48:02.485Z,101715.63
2023-02-04T18:50:34.963Z,101737.41
2023-02-04T18:53:11.259Z,101753.00
2023-02-04T18:55:43.676Z,101749.53
2023-02-04T18:58:51.139Z,101747.63
2023-02-04T19:01:27.645Z,101752.03
2023-02-04T19:04:03.571Z,101756.25
2023-02-04T19:06:30.498Z,101747.13
2023-02-04T19:09:35.929Z,101744.84
2023-02-04T19:12:22.971Z,101738.31
2023-02-04T19:14:50.309Z,101752.38
2023-02-04T19:17:22.180Z,101760.19
2023-02-04T19:20:05.728Z,101758.75
2023-02-04T19:22:49.700Z,101752.81
2023-02-04T19:25:31.008Z,101763.03
2023-02-04T19:28:01.368Z,101773.63
2023-02-04T19:30:28.284Z,101778.31
2023-02-04T19:32:59.880Z,101773.63
2023-02-04T19:35:34.908Z,101778.34
2023-02-04T19:38:28.323Z,101794.88
2023-02-04T19:40:55.312Z,101798.19
2023-02-04T19:43:35.852Z,101789.44
2023-02-04T19:46:18.536Z,101789.81
2023-02-04T19:48:47.057Z,101778.44
2023-02-04T19:51:23.790Z,101779.34
2023-02-04T19:53:52.802Z,101773.28
2023-02-04T19:56:38.633Z,101776.06
2023-02-04T19:59:35.999Z,101776.91
2023-02-04T20:02:27.310Z,101785.44
2023-02-04T20:04:55.086Z,101789.94
2023-02-04T20:07:28.026Z,101787.25
2023-02-04T20:10:18.071Z,101794.78
2023-02-04T20:12:45.054Z,101789.63
2023-02-04T20:15:19.127Z,101795.59
2023-02-04T20:17:50.971Z,101798.47
2023-02-04T20:20:23.596Z,101790.19
2023-02-04T20:23:16.822Z,101794.53
2023-02-04T20:25:47.590Z,101788.75
2023-02-04T20:28:39.949Z,101784.97
2023-02-04T20:31:25.827Z,101784.97
2023-02-04T20:33:57.302Z,101781.78
2023-02-04T20:36:28.769Z,101786.94
2023-02-04T20:39:30.365Z,101776.41
2023-02-04T20:42:35.468Z,101777.16
2023-02-04T20:45:35.737Z,101787.63
2023-02-04T20:48:29.384Z,101792.59
2023-02-04T20:50:59.061Z,101790.81
2023-02-04T20:53:52.940Z,101794.78
2023-02-04T20:56:40.917Z,101800.84
2023-02-04T20:59:18.768Z,101806.72
2023-02-04T21:01:49.794Z,101804.00
2023-02-04T21:04:31.147Z,101806.44
2023-02-04T21:07:02.443Z,101803.44
2023-02-04T21:09:32.281Z,101812.84
2023-02-04T21:12:01.261Z,101809.06
2023-02-04T21:14:29.691Z,101814.03
2023-02-04T21:16:57.084Z,101811.03
2023-02-04T21:19:26.094Z,101812.22
2023-02-04T21:21:53.059Z,101812.66
2023-02-04T21:24:20.129Z,101819.34
2023-02-04T21:26:47.152Z,101830.53
2023-02-04T21:29:14.376Z,101835.66
2023-02-04T21:31:42.025Z,101822.28
2023-02-04T21:34:09.076Z,101821.19
2023-02-04T21:39:39.285Z,101820.53
2023-02-04T21:42:13.402Z,101821.94
2023-02-04T21:44:40.504Z,101825.69
2023-02-04T21:47:07.440Z,101812.81
2023-02-04T21:49:34.406Z,101825.69
2023-02-04T21:52:01.369Z,101841.03
2023-02-04T21:54:28.347Z,101860.31
2023-02-04T21:56:55.300Z,101867.06
2023-02-04T21:59:24.429Z,101866.34
2023-02-04T22:01:51.347Z,101874.88
2023-02-04T22:04:18.281Z,101878.81
2023-02-04T22:06:45.289Z,101889.25
2023-02-04T22:09:12.253Z,101889.34
2023-02-04T22:11:39.284Z,101891.97
2023-02-04T22:14:24.983Z,101905.41
2023-02-04T22:16:51.918Z,101898.38
2023-02-04T22:19:19.675Z,101909.31
2023-02-04T22:21:46.676Z,101916.31
2023-02-04T22:24:13.582Z,101924.06
2023-02-04T22:26:40.510Z,101930.50
2023-02-04T22:29:07.411Z,101931.69
2023-02-04T22:31:35.077Z,101926.63
2023-02-04T22:34:02.504Z,101926.47
2023-02-04T22:36:29.532Z,101938.53
2023-02-04T22:38:56.420Z,101946.19
2023-02-04T22:41:23.353Z,101967.72
2023-02-04T22:43:50.260Z,101961.84
2023-02-04T22:46:17.220Z,101955.09
2023-02-04T22:48:44.140Z,101965.25
2023-02-04T22:51:11.280Z,101975.31
2023-02-04T22:53:38.197Z,101963.31
2023-02-04T22:56:05.600Z,101971.97
2023-02-04T22:58:32.521Z,101973.00
2023-02-04T23:00:59.471Z,101980.53
2023-02-04T23:03:26.379Z,101984.53
2023-02-04T23:05:53.698Z,101984.75
2023-02-04T23:08:20.741Z,102000.13
2023-02-04T23:10:47.813Z,101985.59
2023-02-04T23:13:16.548Z,101987.47
2023-02-04T23:15:44.513Z,101993.00
2023-02-04T23:18:11.500Z,102002.34
2023-02-04T23:20:40.401Z,102020.03
2023-02-04T23:23:08.964Z,102027.28
2023-02-04T23:25:36.507Z,102018.25
2023-02-04T23:28:04.021Z,102016.34
2023-02-04T23:30:31.019Z,102018.63
2023-02-04T23:32:57.960Z,102028.34
2023-02-04T23:35:25.389Z,102031.00
2023-02-04T23:37:52.401Z,102038.44
2023-02-04T23:40:19.527Z,102048.88
2023-02-04T23:42:46.460Z,102041.84
2023-02-04T23:45:13.525Z,102042.91
2023-02-04T23:47:40.480Z,102039.84
2023-02-04T23:50:08.358Z,102033.06
2023-02-04T23:52:35.298Z,102033.75
2023-02-04T23:55:02.256Z,102038.41
2023-02-04T23:57:29.240Z,102050.84
2023-02-04T23:59:56.184Z,102046.22
